sensor_id;sensor_type;location;lat;lon;timestamp;P1;durP1;ratioP1;P2;durP2;ratioP2
6013;SDS011;3035;49.928;8.410;2022-12-10T00:01:14;16.60;;;10.30;;
6013;SDS011;3035;49.928;8.410;2022-12-10T00:03:41;17.50;;;10.30;;
6013;SDS011;3035;49.928;8.410;2022-12-10T00:06:11;13.73;;;8.43;;
6013;SDS011;3035;49.928;8.410;2022-12-10T00:08:38;17.73;;;10.60;;
6013;SDS011;3035;49.928;8.410;2022-12-10T00:11:07;18.33;;;9.90;;
6013;SDS011;3035;49.928;8.410;2022-12-10T00:13:35;15.43;;;9.80;;
6013;SDS011;3035;49.928;8.410;2022-12-10T00:16:04;21.20;;;11.23;;
6013;SDS011;3035;49.928;8.410;2022-12-10T00:18:34;20.60;;;9.50;;
6013;SDS011;3035;49.928;8.410;2022-12-10T00:21:03;18.57;;;9.60;;
6013;SDS011;3035;49.928;8.410;2022-12-10T00:23:31;17.20;;;9.63;;
6013;SDS011;3035;49.928;8.410;2022-12-10T00:26:12;14.43;;;9.07;;
6013;SDS011;3035;49.928;8.410;2022-12-10T00:28:41;18.33;;;9.70;;
6013;SDS011;3035;49.928;8.410;2022-12-10T00:31:12;14.80;;;10.13;;
6013;SDS011;3035;49.928;8.410;2022-12-10T00:33:40;18.57;;;10.33;;
6013;SDS011;3035;49.928;8.410;2022-12-10T00:36:09;16.40;;;9.33;;
6013;SDS011;3035;49.928;8.410;2022-12-10T00:38:37;18.33;;;10.47;;
6013;SDS011;3035;49.928;8.410;2022-12-10T00:41:06;23.83;;;10.17;;
6013;SDS011;3035;49.928;8.410;2022-12-10T00:43:34;17.97;;;9.87;;
6013;SDS011;3035;49.928;8.410;2022-12-10T00:46:03;18.97;;;10.13;;
6013;SDS011;3035;49.928;8.410;2022-12-10T00:48:32;19.17;;;11.03;;
6013;SDS011;3035;49.928;8.410;2022-12-10T00:51:02;15.80;;;10.20;;
6013;SDS011;3035;49.928;8.410;2022-12-10T00:53:30;18.60;;;10.07;;
6013;SDS011;3035;49.928;8.410;2022-12-10T00:55:58;24.63;;;12.60;;
6013;SDS011;3035;49.928;8.410;2022-12-10T00:58:27;19.50;;;9.50;;
6013;SDS011;3035;49.928;8.410;2022-12-10T01:00:54;20.80;;;11.03;;
6013;SDS011;3035;49.928;8.410;2022-12-10T01:03:22;16.73;;;9.80;;
6013;SDS011;3035;49.928;8.410;2022-12-10T01:05:52;16.33;;;9.80;;
6013;SDS011;3035;49.928;8.410;2022-12-10T01:08:20;17.47;;;10.03;;
6013;SDS011;3035;49.928;8.410;2022-12-10T01:10:52;18.03;;;9.80;;
6013;SDS011;3035;49.928;8.410;2022-12-10T01:13:24;17.47;;;10.03;;
6013;SDS011;3035;49.928;8.410;2022-12-10T01:15:52;17.30;;;8.87;;
6013;SDS011;3035;49.928;8.410;2022-12-10T01:18:21;16.30;;;9.00;;
6013;SDS011;3035;49.928;8.410;2022-12-10T01:20:49;20.77;;;10.00;;
6013;SDS011;3035;49.928;8.410;2022-12-10T01:23:17;24.83;;;10.40;;
6013;SDS011;3035;49.928;8.410;2022-12-10T01:25:45;20.57;;;10.50;;
6013;SDS011;3035;49.928;8.410;2022-12-10T01:28:14;14.93;;;9.30;;
6013;SDS011;3035;49.928;8.410;2022-12-10T01:30:42;20.30;;;10.20;;
6013;SDS011;3035;49.928;8.410;2022-12-10T01:33:11;22.90;;;11.50;;
6013;SDS011;3035;49.928;8.410;2022-12-10T01:35:39;22.07;;;11.27;;
6013;SDS011;3035;49.928;8.410;2022-12-10T01:38:07;16.63;;;10.43;;
6013;SDS011;3035;49.928;8.410;2022-12-10T01:40:37;19.90;;;11.93;;
6013;SDS011;3035;49.928;8.410;2022-12-10T01:43:05;19.23;;;9.83;;
6013;SDS011;3035;49.928;8.410;2022-12-10T01:45:33;19.07;;;10.60;;
6013;SDS011;3035;49.928;8.410;2022-12-10T01:48:02;18.63;;;10.00;;
6013;SDS011;3035;49.928;8.410;2022-12-10T01:50:30;20.17;;;10.03;;
6013;SDS011;3035;49.928;8.410;2022-12-10T01:52:58;19.10;;;11.87;;
6013;SDS011;3035;49.928;8.410;2022-12-10T01:58:05;19.37;;;11.23;;
6013;SDS011;3035;49.928;8.410;2022-12-10T02:00:34;16.97;;;9.93;;
6013;SDS011;3035;49.928;8.410;2022-12-10T02:03:08;17.60;;;10.30;;
6013;SDS011;3035;49.928;8.410;2022-12-10T02:05:36;18.90;;;10.37;;
6013;SDS011;3035;49.928;8.410;2022-12-10T02:08:06;16.50;;;10.37;;
6013;SDS011;3035;49.928;8.410;2022-12-10T02:10:55;23.50;;;10.20;;
6013;SDS011;3035;49.928;8.410;2022-12-10T02:13:40;18.57;;;10.33;;
6013;SDS011;3035;49.928;8.410;2022-12-10T02:16:14;21.73;;;11.10;;
6013;SDS011;3035;49.928;8.410;2022-12-10T02:21:50;18.03;;;10.70;;
6013;SDS011;3035;49.928;8.410;2022-12-10T02:24:21;19.33;;;9.20;;
6013;SDS011;3035;49.928;8.410;2022-12-10T02:26:54;23.07;;;11.80;;
6013;SDS011;3035;49.928;8.410;2022-12-10T02:29:25;19.87;;;10.43;;
6013;SDS011;3035;49.928;8.410;2022-12-10T02:31:55;24.87;;;12.73;;
6013;SDS011;3035;49.928;8.410;2022-12-10T02:34:23;19.00;;;9.90;;
6013;SDS011;3035;49.928;8.410;2022-12-10T02:36:52;19.40;;;10.77;;
6013;SDS011;3035;49.928;8.410;2022-12-10T02:39:23;20.60;;;11.80;;
6013;SDS011;3035;49.928;8.410;2022-12-10T02:41:51;21.90;;;11.47;;
6013;SDS011;3035;49.928;8.410;2022-12-10T02:44:19;21.37;;;11.40;;
6013;SDS011;3035;49.928;8.410;2022-12-10T02:46:48;20.30;;;12.27;;
6013;SDS011;3035;49.928;8.410;2022-12-10T02:49:16;18.77;;;11.37;;
6013;SDS011;3035;49.928;8.410;2022-12-10T02:51:44;16.97;;;9.80;;
6013;SDS011;3035;49.928;8.410;2022-12-10T02:57:00;17.50;;;9.17;;
6013;SDS011;3035;49.928;8.410;2022-12-10T02:59:29;20.30;;;9.60;;
6013;SDS011;3035;49.928;8.410;2022-12-10T03:02:00;17.20;;;9.37;;
6013;SDS011;3035;49.928;8.410;2022-12-10T03:04:46;14.63;;;8.67;;
6013;SDS011;3035;49.928;8.410;2022-12-10T03:07:33;13.83;;;8.90;;
6013;SDS011;3035;49.928;8.410;2022-12-10T03:10:11;15.53;;;8.97;;
6013;SDS011;3035;49.928;8.410;2022-12-10T03:12:41;13.40;;;8.50;;
6013;SDS011;3035;49.928;8.410;2022-12-10T03:15:11;16.07;;;8.60;;
6013;SDS011;3035;49.928;8.410;2022-12-10T03:17:39;12.43;;;7.53;;
6013;SDS011;3035;49.928;8.410;2022-12-10T03:20:08;13.03;;;7.50;;
6013;SDS011;3035;49.928;8.410;2022-12-10T03:22:37;17.47;;;9.57;;
6013;SDS011;3035;49.928;8.410;2022-12-10T03:25:05;13.47;;;7.50;;
6013;SDS011;3035;49.928;8.410;2022-12-10T03:27:35;12.50;;;7.37;;
6013;SDS011;3035;49.928;8.410;2022-12-10T03:30:03;13.40;;;8.13;;
6013;SDS011;3035;49.928;8.410;2022-12-10T03:32:32;13.80;;;8.17;;
6013;SDS011;3035;49.928;8.410;2022-12-10T03:35:00;15.87;;;8.17;;
6013;SDS011;3035;49.928;8.410;2022-12-10T03:37:29;14.73;;;8.03;;
6013;SDS011;3035;49.928;8.410;2022-12-10T03:39:57;13.10;;;7.53;;
6013;SDS011;3035;49.928;8.410;2022-12-10T03:42:26;14.03;;;8.47;;
6013;SDS011;3035;49.928;8.410;2022-12-10T03:44:55;16.50;;;8.07;;
6013;SDS011;3035;49.928;8.410;2022-12-10T03:47:24;13.67;;;7.83;;
6013;SDS011;3035;49.928;8.410;2022-12-10T03:49:52;14.00;;;8.20;;
6013;SDS011;3035;49.928;8.410;2022-12-10T03:52:20;15.40;;;8.10;;
6013;SDS011;3035;49.928;8.410;2022-12-10T03:54:49;12.37;;;7.90;;
6013;SDS011;3035;49.928;8.410;2022-12-10T03:57:17;10.50;;;6.47;;
6013;SDS011;3035;49.928;8.410;2022-12-10T03:59:46;13.20;;;8.07;;
6013;SDS011;3035;49.928;8.410;2022-12-10T04:02:15;13.63;;;8.23;;
6013;SDS011;3035;49.928;8.410;2022-12-10T04:04:43;11.00;;;6.87;;
6013;SDS011;3035;49.928;8.410;2022-12-10T04:07:11;12.30;;;6.80;;
6013;SDS011;3035;49.928;8.410;2022-12-10T04:09:40;17.10;;;9.20;;
6013;SDS011;3035;49.928;8.410;2022-12-10T04:12:08;11.30;;;7.93;;
6013;SDS011;3035;49.928;8.410;2022-12-10T04:14:37;12.10;;;6.70;;
6013;SDS011;3035;49.928;8.410;2022-12-10T04:17:11;10.33;;;6.63;;
6013;SDS011;3035;49.928;8.410;2022-12-10T04:19:40;12.10;;;8.07;;
6013;SDS011;3035;49.928;8.410;2022-12-10T04:22:08;11.30;;;6.60;;
6013;SDS011;3035;49.928;8.410;2022-12-10T04:24:43;15.53;;;8.47;;
6013;SDS011;3035;49.928;8.410;2022-12-10T04:27:18;13.03;;;8.00;;
6013;SDS011;3035;49.928;8.410;2022-12-10T04:29:47;15.03;;;8.60;;
6013;SDS011;3035;49.928;8.410;2022-12-10T04:32:15;12.03;;;7.10;;
6013;SDS011;3035;49.928;8.410;2022-12-10T04:34:44;9.40;;;6.90;;
6013;SDS011;3035;49.928;8.410;2022-12-10T04:37:12;10.97;;;7.23;;
6013;SDS011;3035;49.928;8.410;2022-12-10T04:39:40;14.47;;;7.73;;
6013;SDS011;3035;49.928;8.410;2022-12-10T04:42:09;13.70;;;7.30;;
6013;SDS011;3035;49.928;8.410;2022-12-10T04:44:37;12.27;;;7.50;;
6013;SDS011;3035;49.928;8.410;2022-12-10T04:47:06;12.97;;;7.33;;
6013;SDS011;3035;49.928;8.410;2022-12-10T04:49:34;10.33;;;6.97;;
6013;SDS011;3035;49.928;8.410;2022-12-10T04:52:03;12.17;;;7.60;;
6013;SDS011;3035;49.928;8.410;2022-12-10T04:54:31;10.93;;;6.80;;
6013;SDS011;3035;49.928;8.410;2022-12-10T04:57:01;10.57;;;7.23;;
6013;SDS011;3035;49.928;8.410;2022-12-10T04:59:29;11.97;;;7.70;;
6013;SDS011;3035;49.928;8.410;2022-12-10T05:01:58;15.27;;;7.40;;
6013;SDS011;3035;49.928;8.410;2022-12-10T05:04:26;11.60;;;7.20;;
6013;SDS011;3035;49.928;8.410;2022-12-10T05:06:55;15.70;;;8.10;;
6013;SDS011;3035;49.928;8.410;2022-12-10T05:09:24;11.53;;;6.83;;
6013;SDS011;3035;49.928;8.410;2022-12-10T05:11:53;15.93;;;8.17;;
6013;SDS011;3035;49.928;8.410;2022-12-10T05:14:22;13.00;;;7.70;;
6013;SDS011;3035;49.928;8.410;2022-12-10T05:16:50;12.33;;;7.17;;
6013;SDS011;3035;49.928;8.410;2022-12-10T05:19:20;10.30;;;6.90;;
6013;SDS011;3035;49.928;8.410;2022-12-10T05:21:49;11.97;;;7.97;;
6013;SDS011;3035;49.928;8.410;2022-12-10T05:24:23;14.53;;;7.93;;
6013;SDS011;3035;49.928;8.410;2022-12-10T05:26:51;14.17;;;8.50;;
6013;SDS011;3035;49.928;8.410;2022-12-10T05:29:20;12.63;;;7.97;;
6013;SDS011;3035;49.928;8.410;2022-12-10T05:31:48;13.50;;;8.40;;
6013;SDS011;3035;49.928;8.410;2022-12-10T05:34:17;14.93;;;7.87;;
6013;SDS011;3035;49.928;8.410;2022-12-10T05:36:45;12.17;;;6.83;;
6013;SDS011;3035;49.928;8.410;2022-12-10T05:39:13;13.67;;;7.43;;
6013;SDS011;3035;49.928;8.410;2022-12-10T05:41:41;23.33;;;7.70;;
6013;SDS011;3035;49.928;8.410;2022-12-10T05:44:10;11.97;;;8.43;;
6013;SDS011;3035;49.928;8.410;2022-12-10T05:46:38;14.73;;;8.50;;
6013;SDS011;3035;49.928;8.410;2022-12-10T05:49:07;13.77;;;7.57;;
6013;SDS011;3035;49.928;8.410;2022-12-10T05:51:36;13.77;;;7.97;;
6013;SDS011;3035;49.928;8.410;2022-12-10T05:54:04;10.83;;;7.00;;
6013;SDS011;3035;49.928;8.410;2022-12-10T05:56:33;11.90;;;7.33;;
6013;SDS011;3035;49.928;8.410;2022-12-10T05:59:01;10.03;;;6.23;;
6013;SDS011;3035;49.928;8.410;2022-12-10T06:01:30;11.67;;;7.87;;
6013;SDS011;3035;49.928;8.410;2022-12-10T06:04:00;10.30;;;6.60;;
6013;SDS011;3035;49.928;8.410;2022-12-10T06:06:29;12.47;;;7.80;;
6013;SDS011;3035;49.928;8.410;2022-12-10T06:08:58;12.23;;;8.30;;
6013;SDS011;3035;49.928;8.410;2022-12-10T06:11:27;11.90;;;6.90;;
6013;SDS011;3035;49.928;8.410;2022-12-10T06:13:56;11.07;;;7.63;;
6013;SDS011;3035;49.928;8.410;2022-12-10T06:16:24;12.10;;;7.30;;
6013;SDS011;3035;49.928;8.410;2022-12-10T06:18:53;12.30;;;7.47;;
6013;SDS011;3035;49.928;8.410;2022-12-10T06:21:21;14.17;;;8.20;;
6013;SDS011;3035;49.928;8.410;2022-12-10T06:23:50;11.33;;;6.90;;
6013;SDS011;3035;49.928;8.410;2022-12-10T06:26:20;16.67;;;8.67;;
6013;SDS011;3035;49.928;8.410;2022-12-10T06:28:48;12.63;;;7.53;;
6013;SDS011;3035;49.928;8.410;2022-12-10T06:31:16;13.27;;;7.63;;
6013;SDS011;3035;49.928;8.410;2022-12-10T06:33:44;12.87;;;7.97;;
6013;SDS011;3035;49.928;8.410;2022-12-10T06:36:13;14.30;;;7.77;;
6013;SDS011;3035;49.928;8.410;2022-12-10T06:38:42;15.10;;;7.67;;
6013;SDS011;3035;49.928;8.410;2022-12-10T06:41:10;11.67;;;6.93;;
6013;SDS011;3035;49.928;8.410;2022-12-10T06:43:38;13.43;;;8.50;;
6013;SDS011;3035;49.928;8.410;2022-12-10T06:46:08;12.57;;;6.80;;
6013;SDS011;3035;49.928;8.410;2022-12-10T06:48:38;9.80;;;6.80;;
6013;SDS011;3035;49.928;8.410;2022-12-10T06:51:07;14.23;;;7.93;;
6013;SDS011;3035;49.928;8.410;2022-12-10T06:53:36;15.50;;;7.80;;
6013;SDS011;3035;49.928;8.410;2022-12-10T06:56:04;14.23;;;7.30;;
6013;SDS011;3035;49.928;8.410;2022-12-10T06:58:33;14.67;;;7.87;;
6013;SDS011;3035;49.928;8.410;2022-12-10T07:01:03;12.30;;;7.43;;
6013;SDS011;3035;49.928;8.410;2022-12-10T07:03:32;16.70;;;7.80;;
6013;SDS011;3035;49.928;8.410;2022-12-10T07:06:01;18.40;;;9.50;;
6013;SDS011;3035;49.928;8.410;2022-12-10T07:08:30;21.87;;;12.93;;
6013;SDS011;3035;49.928;8.410;2022-12-10T07:10:59;21.10;;;13.03;;
6013;SDS011;3035;49.928;8.410;2022-12-10T07:13:28;21.67;;;11.07;;
6013;SDS011;3035;49.928;8.410;2022-12-10T07:15:56;17.53;;;9.37;;
6013;SDS011;3035;49.928;8.410;2022-12-10T07:18:25;13.53;;;8.00;;
6013;SDS011;3035;49.928;8.410;2022-12-10T07:20:52;20.27;;;12.77;;
6013;SDS011;3035;49.928;8.410;2022-12-10T07:23:21;19.37;;;11.77;;
6013;SDS011;3035;49.928;8.410;2022-12-10T07:25:49;18.23;;;9.80;;
6013;SDS011;3035;49.928;8.410;2022-12-10T07:28:18;13.97;;;8.93;;
6013;SDS011;3035;49.928;8.410;2022-12-10T07:30:46;11.97;;;8.30;;
6013;SDS011;3035;49.928;8.410;2022-12-10T07:33:15;13.83;;;7.40;;
6013;SDS011;3035;49.928;8.410;2022-12-10T07:35:45;9.33;;;6.70;;
6013;SDS011;3035;49.928;8.410;2022-12-10T07:38:13;12.50;;;8.57;;
6013;SDS011;3035;49.928;8.410;2022-12-10T07:40:41;11.27;;;7.50;;
6013;SDS011;3035;49.928;8.410;2022-12-10T07:43:10;15.07;;;8.03;;
6013;SDS011;3035;49.928;8.410;2022-12-10T07:45:39;12.10;;;7.57;;
6013;SDS011;3035;49.928;8.410;2022-12-10T07:48:08;11.10;;;7.73;;
6013;SDS011;3035;49.928;8.410;2022-12-10T07:50:36;12.80;;;8.03;;
6013;SDS011;3035;49.928;8.410;2022-12-10T07:53:05;16.00;;;8.47;;
6013;SDS011;3035;49.928;8.410;2022-12-10T07:55:33;10.50;;;6.60;;
6013;SDS011;3035;49.928;8.410;2022-12-10T07:58:03;12.50;;;7.80;;
6013;SDS011;3035;49.928;8.410;2022-12-10T08:00:30;14.50;;;7.57;;
6013;SDS011;3035;49.928;8.410;2022-12-10T08:02:59;12.17;;;7.83;;
6013;SDS011;3035;49.928;8.410;2022-12-10T08:05:28;13.97;;;8.93;;
6013;SDS011;3035;49.928;8.410;2022-12-10T08:07:56;17.00;;;9.60;;
6013;SDS011;3035;49.928;8.410;2022-12-10T08:10:24;20.03;;;8.73;;
6013;SDS011;3035;49.928;8.410;2022-12-10T08:12:53;14.27;;;8.70;;
6013;SDS011;3035;49.928;8.410;2022-12-10T08:15:21;13.17;;;8.47;;
6013;SDS011;3035;49.928;8.410;2022-12-10T08:17:49;12.77;;;7.40;;
6013;SDS011;3035;49.928;8.410;2022-12-10T08:20:17;14.27;;;8.40;;
6013;SDS011;3035;49.928;8.410;2022-12-10T08:22:46;20.20;;;9.37;;
6013;SDS011;3035;49.928;8.410;2022-12-10T08:25:14;18.30;;;9.70;;
6013;SDS011;3035;49.928;8.410;2022-12-10T08:27:43;16.83;;;9.60;;
6013;SDS011;3035;49.928;8.410;2022-12-10T08:30:11;15.33;;;9.17;;
6013;SDS011;3035;49.928;8.410;2022-12-10T08:32:40;21.13;;;10.77;;
6013;SDS011;3035;49.928;8.410;2022-12-10T08:35:08;26.30;;;12.30;;
6013;SDS011;3035;49.928;8.410;2022-12-10T08:37:40;16.70;;;9.37;;
6013;SDS011;3035;49.928;8.410;2022-12-10T08:40:05;17.77;;;10.17;;
6013;SDS011;3035;49.928;8.410;2022-12-10T08:42:35;16.20;;;9.13;;
6013;SDS011;3035;49.928;8.410;2022-12-10T08:45:03;14.47;;;7.87;;
6013;SDS011;3035;49.928;8.410;2022-12-10T08:47:33;13.10;;;8.10;;
6013;SDS011;3035;49.928;8.410;2022-12-10T08:50:02;11.73;;;7.70;;
6013;SDS011;3035;49.928;8.410;2022-12-10T08:52:30;11.67;;;8.07;;
6013;SDS011;3035;49.928;8.410;2022-12-10T08:54:59;12.97;;;8.27;;
6013;SDS011;3035;49.928;8.410;2022-12-10T08:57:27;13.50;;;7.90;;
6013;SDS011;3035;49.928;8.410;2022-12-10T08:59:55;12.33;;;8.10;;
6013;SDS011;3035;49.928;8.410;2022-12-10T09:02:23;14.80;;;8.10;;
6013;SDS011;3035;49.928;8.410;2022-12-10T09:07:35;13.37;;;7.93;;
6013;SDS011;3035;49.928;8.410;2022-12-10T09:10:04;12.43;;;7.07;;
6013;SDS011;3035;49.928;8.410;2022-12-10T09:12:33;15.97;;;9.23;;
6013;SDS011;3035;49.928;8.410;2022-12-10T09:15:01;11.27;;;8.40;;
6013;SDS011;3035;49.928;8.410;2022-12-10T09:17:31;15.07;;;8.70;;
6013;SDS011;3035;49.928;8.410;2022-12-10T09:20:00;12.10;;;8.00;;
6013;SDS011;3035;49.928;8.410;2022-12-10T09:22:29;16.47;;;8.97;;
6013;SDS011;3035;49.928;8.410;2022-12-10T09:24:57;15.47;;;8.17;;
6013;SDS011;3035;49.928;8.410;2022-12-10T09:27:26;13.53;;;8.50;;
6013;SDS011;3035;49.928;8.410;2022-12-10T09:29:54;11.93;;;7.60;;
6013;SDS011;3035;49.928;8.410;2022-12-10T09:32:23;15.90;;;8.53;;
6013;SDS011;3035;49.928;8.410;2022-12-10T09:34:52;12.20;;;8.10;;
6013;SDS011;3035;49.928;8.410;2022-12-10T09:37:20;14.17;;;8.23;;
6013;SDS011;3035;49.928;8.410;2022-12-10T09:39:48;12.17;;;9.00;;
6013;SDS011;3035;49.928;8.410;2022-12-10T09:42:21;17.23;;;8.00;;
6013;SDS011;3035;49.928;8.410;2022-12-10T09:47:24;15.50;;;9.57;;
6013;SDS011;3035;49.928;8.410;2022-12-10T09:49:56;13.30;;;8.57;;
6013;SDS011;3035;49.928;8.410;2022-12-10T09:52:29;13.13;;;8.37;;
6013;SDS011;3035;49.928;8.410;2022-12-10T09:57:46;13.83;;;9.10;;
6013;SDS011;3035;49.928;8.410;2022-12-10T10:00:19;13.33;;;8.10;;
6013;SDS011;3035;49.928;8.410;2022-12-10T10:02:46;14.70;;;8.57;;
6013;SDS011;3035;49.928;8.410;2022-12-10T10:05:20;13.20;;;8.97;;
6013;SDS011;3035;49.928;8.410;2022-12-10T10:07:49;15.30;;;9.07;;
6013;SDS011;3035;49.928;8.410;2022-12-10T10:10:23;13.57;;;8.10;;
6013;SDS011;3035;49.928;8.410;2022-12-10T10:12:52;14.60;;;8.97;;
6013;SDS011;3035;49.928;8.410;2022-12-10T10:15:24;16.40;;;8.30;;
6013;SDS011;3035;49.928;8.410;2022-12-10T10:17:52;13.00;;;7.53;;
6013;SDS011;3035;49.928;8.410;2022-12-10T10:20:19;12.00;;;8.00;;
6013;SDS011;3035;49.928;8.410;2022-12-10T10:22:47;13.60;;;8.67;;
6013;SDS011;3035;49.928;8.410;2022-12-10T10:25:16;14.33;;;8.03;;
6013;SDS011;3035;49.928;8.410;2022-12-10T10:27:44;12.20;;;7.47;;
6013;SDS011;3035;49.928;8.410;2022-12-10T10:30:14;15.50;;;7.60;;
6013;SDS011;3035;49.928;8.410;2022-12-10T10:32:47;11.33;;;7.60;;
6013;SDS011;3035;49.928;8.410;2022-12-10T10:35:28;9.93;;;6.80;;
6013;SDS011;3035;49.928;8.410;2022-12-10T10:37:59;10.23;;;7.40;;
6013;SDS011;3035;49.928;8.410;2022-12-10T10:40:30;13.70;;;7.33;;
6013;SDS011;3035;49.928;8.410;2022-12-10T10:42:59;10.57;;;6.33;;
6013;SDS011;3035;49.928;8.410;2022-12-10T10:48:17;10.80;;;7.20;;
6013;SDS011;3035;49.928;8.410;2022-12-10T10:50:48;10.93;;;7.30;;
6013;SDS011;3035;49.928;8.410;2022-12-10T10:53:27;11.00;;;7.00;;
6013;SDS011;3035;49.928;8.410;2022-12-10T10:56:17;8.70;;;6.57;;
6013;SDS011;3035;49.928;8.410;2022-12-10T10:58:51;12.17;;;7.10;;
6013;SDS011;3035;49.928;8.410;2022-12-10T11:01:17;9.10;;;6.17;;
6013;SDS011;3035;49.928;8.410;2022-12-10T11:03:48;19.57;;;7.20;;
6013;SDS011;3035;49.928;8.410;2022-12-10T11:06:17;10.70;;;7.00;;
6013;SDS011;3035;49.928;8.410;2022-12-10T11:08:47;14.83;;;6.70;;
6013;SDS011;3035;49.928;8.410;2022-12-10T11:11:19;8.80;;;6.50;;
6013;SDS011;3035;49.928;8.410;2022-12-10T11:13:47;10.73;;;7.07;;
6013;SDS011;3035;49.928;8.410;2022-12-10T11:16:18;11.27;;;6.87;;
6013;SDS011;3035;49.928;8.410;2022-12-10T11:18:52;11.23;;;6.47;;
6013;SDS011;3035;49.928;8.410;2022-12-10T11:21:20;13.60;;;7.27;;
6013;SDS011;3035;49.928;8.410;2022-12-10T11:23:51;11.80;;;7.53;;
6013;SDS011;3035;49.928;8.410;2022-12-10T11:26:24;12.73;;;6.73;;
6013;SDS011;3035;49.928;8.410;2022-12-10T11:29:27;9.70;;;6.80;;
6013;SDS011;3035;49.928;8.410;2022-12-10T11:32:20;11.53;;;7.03;;
6013;SDS011;3035;49.928;8.410;2022-12-10T11:35:00;10.53;;;6.67;;
6013;SDS011;3035;49.928;8.410;2022-12-10T11:37:31;18.27;;;7.60;;
6013;SDS011;3035;49.928;8.410;2022-12-10T11:40:06;12.53;;;7.10;;
6013;SDS011;3035;49.928;8.410;2022-12-10T11:42:43;12.13;;;7.13;;
6013;SDS011;3035;49.928;8.410;2022-12-10T11:45:18;14.07;;;7.40;;
6013;SDS011;3035;49.928;8.410;2022-12-10T11:47:53;10.97;;;6.80;;
6013;SDS011;3035;49.928;8.410;2022-12-10T11:50:48;10.93;;;6.97;;
6013;SDS011;3035;49.928;8.410;2022-12-10T11:56:08;8.77;;;6.27;;
6013;SDS011;3035;49.928;8.410;2022-12-10T11:58:46;13.27;;;7.60;;
6013;SDS011;3035;49.928;8.410;2022-12-10T12:07:18;8.80;;;6.17;;
6013;SDS011;3035;49.928;8.410;2022-12-10T12:12:53;12.53;;;6.80;;
6013;SDS011;3035;49.928;8.410;2022-12-10T12:15:28;10.60;;;6.77;;
6013;SDS011;3035;49.928;8.410;2022-12-10T12:17:57;9.13;;;5.40;;
6013;SDS011;3035;49.928;8.410;2022-12-10T12:20:32;9.43;;;5.00;;
6013;SDS011;3035;49.928;8.410;2022-12-10T12:23:15;7.43;;;5.73;;
6013;SDS011;3035;49.928;8.410;2022-12-10T12:25:46;10.00;;;6.00;;
6013;SDS011;3035;49.928;8.410;2022-12-10T12:30:49;9.87;;;6.60;;
6013;SDS011;3035;49.928;8.410;2022-12-10T12:33:21;10.50;;;6.17;;
6013;SDS011;3035;49.928;8.410;2022-12-10T12:35:50;11.23;;;6.07;;
6013;SDS011;3035;49.928;8.410;2022-12-10T12:38:28;9.33;;;6.33;;
6013;SDS011;3035;49.928;8.410;2022-12-10T12:41:04;14.97;;;7.50;;
6013;SDS011;3035;49.928;8.410;2022-12-10T12:46:16;8.83;;;5.77;;
6013;SDS011;3035;49.928;8.410;2022-12-10T12:48:50;10.03;;;6.07;;
6013;SDS011;3035;49.928;8.410;2022-12-10T12:51:27;7.93;;;5.37;;
6013;SDS011;3035;49.928;8.410;2022-12-10T12:53:55;9.37;;;4.90;;
6013;SDS011;3035;49.928;8.410;2022-12-10T12:56:32;8.47;;;5.43;;
6013;SDS011;3035;49.928;8.410;2022-12-10T12:59:11;6.90;;;5.53;;
6013;SDS011;3035;49.928;8.410;2022-12-10T13:01:43;8.80;;;6.00;;
6013;SDS011;3035;49.928;8.410;2022-12-10T13:04:11;13.20;;;5.90;;
6013;SDS011;3035;49.928;8.410;2022-12-10T13:06:40;8.87;;;5.37;;
6013;SDS011;3035;49.928;8.410;2022-12-10T13:09:15;9.00;;;5.23;;
6013;SDS011;3035;49.928;8.410;2022-12-10T13:11:46;11.67;;;6.07;;
6013;SDS011;3035;49.928;8.410;2022-12-10T13:14:14;11.60;;;5.77;;
6013;SDS011;3035;49.928;8.410;2022-12-10T13:16:48;9.90;;;5.97;;
6013;SDS011;3035;49.928;8.410;2022-12-10T13:19:26;10.07;;;6.03;;
6013;SDS011;3035;49.928;8.410;2022-12-10T13:22:00;8.27;;;5.60;;
6013;SDS011;3035;49.928;8.410;2022-12-10T13:27:33;9.57;;;6.67;;
6013;SDS011;3035;49.928;8.410;2022-12-10T13:30:03;13.63;;;7.50;;
6013;SDS011;3035;49.928;8.410;2022-12-10T13:35:23;19.17;;;9.20;;
6013;SDS011;3035;49.928;8.410;2022-12-10T13:37:55;12.87;;;6.47;;
6013;SDS011;3035;49.928;8.410;2022-12-10T13:48:48;10.00;;;6.83;;
6013;SDS011;3035;49.928;8.410;2022-12-10T13:51:18;11.00;;;6.73;;
6013;SDS011;3035;49.928;8.410;2022-12-10T13:54:05;12.63;;;6.70;;
6013;SDS011;3035;49.928;8.410;2022-12-10T13:57:14;10.50;;;6.00;;
6013;SDS011;3035;49.928;8.410;2022-12-10T14:00:06;8.07;;;6.03;;
6013;SDS011;3035;49.928;8.410;2022-12-10T14:02:41;9.03;;;6.07;;
6013;SDS011;3035;49.928;8.410;2022-12-10T14:05:23;10.10;;;6.40;;
6013;SDS011;3035;49.928;8.410;2022-12-10T14:07:56;10.37;;;6.40;;
6013;SDS011;3035;49.928;8.410;2022-12-10T14:10:26;10.07;;;6.37;;
6013;SDS011;3035;49.928;8.410;2022-12-10T14:12:52;11.63;;;6.40;;
6013;SDS011;3035;49.928;8.410;2022-12-10T14:15:23;10.87;;;6.83;;
6013;SDS011;3035;49.928;8.410;2022-12-10T14:17:53;9.63;;;6.00;;
6013;SDS011;3035;49.928;8.410;2022-12-10T14:20:21;10.60;;;6.20;;
6013;SDS011;3035;49.928;8.410;2022-12-10T14:22:51;9.67;;;5.90;;
6013;SDS011;3035;49.928;8.410;2022-12-10T14:25:20;8.80;;;5.50;;
6013;SDS011;3035;49.928;8.410;2022-12-10T14:27:48;8.20;;;5.70;;
6013;SDS011;3035;49.928;8.410;2022-12-10T14:30:20;12.20;;;6.33;;
6013;SDS011;3035;49.928;8.410;2022-12-10T14:32:47;9.63;;;5.93;;
6013;SDS011;3035;49.928;8.410;2022-12-10T14:35:19;10.37;;;6.63;;
6013;SDS011;3035;49.928;8.410;2022-12-10T14:37:47;12.57;;;7.30;;
6013;SDS011;3035;49.928;8.410;2022-12-10T14:43:13;10.77;;;6.97;;
6013;SDS011;3035;49.928;8.410;2022-12-10T14:45:44;15.43;;;7.43;;
6013;SDS011;3035;49.928;8.410;2022-12-10T14:48:17;10.70;;;7.27;;
6013;SDS011;3035;49.928;8.410;2022-12-10T14:50:45;9.43;;;6.10;;
6013;SDS011;3035;49.928;8.410;2022-12-10T14:53:17;14.97;;;7.20;;
6013;SDS011;3035;49.928;8.410;2022-12-10T14:55:46;8.80;;;6.40;;
6013;SDS011;3035;49.928;8.410;2022-12-10T14:58:16;8.47;;;6.10;;
6013;SDS011;3035;49.928;8.410;2022-12-10T15:00:44;9.40;;;5.90;;
6013;SDS011;3035;49.928;8.410;2022-12-10T15:03:13;8.53;;;5.80;;
6013;SDS011;3035;49.928;8.410;2022-12-10T15:05:40;10.70;;;6.20;;
6013;SDS011;3035;49.928;8.410;2022-12-10T15:08:14;10.53;;;6.47;;
6013;SDS011;3035;49.928;8.410;2022-12-10T15:10:43;9.70;;;6.63;;
6013;SDS011;3035;49.928;8.410;2022-12-10T15:13:18;11.10;;;6.90;;
6013;SDS011;3035;49.928;8.410;2022-12-10T15:15:47;14.17;;;6.50;;
6013;SDS011;3035;49.928;8.410;2022-12-10T15:18:15;14.53;;;7.13;;
6013;SDS011;3035;49.928;8.410;2022-12-10T15:20:46;9.43;;;6.50;;
6013;SDS011;3035;49.928;8.410;2022-12-10T15:23:16;10.30;;;7.10;;
6013;SDS011;3035;49.928;8.410;2022-12-10T15:25:48;12.60;;;8.43;;
6013;SDS011;3035;49.928;8.410;2022-12-10T15:28:35;12.20;;;7.70;;
6013;SDS011;3035;49.928;8.410;2022-12-10T15:33:47;13.07;;;6.80;;
6013;SDS011;3035;49.928;8.410;2022-12-10T15:36:19;11.80;;;8.00;;
6013;SDS011;3035;49.928;8.410;2022-12-10T15:38:46;15.47;;;8.30;;
6013;SDS011;3035;49.928;8.410;2022-12-10T15:44:01;12.67;;;8.03;;
6013;SDS011;3035;49.928;8.410;2022-12-10T15:46:28;17.07;;;9.70;;
6013;SDS011;3035;49.928;8.410;2022-12-10T15:48:56;18.73;;;9.70;;
6013;SDS011;3035;49.928;8.410;2022-12-10T15:51:25;18.80;;;10.00;;
6013;SDS011;3035;49.928;8.410;2022-12-10T15:53:53;19.33;;;9.27;;
6013;SDS011;3035;49.928;8.410;2022-12-10T15:56:22;17.13;;;9.00;;
6013;SDS011;3035;49.928;8.410;2022-12-10T15:58:51;22.57;;;11.00;;
6013;SDS011;3035;49.928;8.410;2022-12-10T16:01:19;18.80;;;9.70;;
6013;SDS011;3035;49.928;8.410;2022-12-10T16:03:47;14.73;;;9.60;;
6013;SDS011;3035;49.928;8.410;2022-12-10T16:06:15;18.17;;;8.10;;
6013;SDS011;3035;49.928;8.410;2022-12-10T16:08:43;12.33;;;7.30;;
6013;SDS011;3035;49.928;8.410;2022-12-10T16:11:15;13.20;;;7.40;;
6013;SDS011;3035;49.928;8.410;2022-12-10T16:13:42;11.10;;;7.47;;
6013;SDS011;3035;49.928;8.410;2022-12-10T16:16:10;11.70;;;8.10;;
6013;SDS011;3035;49.928;8.410;2022-12-10T16:18:39;11.17;;;8.50;;